sensor_id;sensor_type;location;lat;lon;timestamp;P1;durP1;ratioP1;P2;durP2;ratioP2
14169;SDS011;63889;50.596;8.690;2023-07-20T00:01:13;6.40;;;2.42;;
14169;SDS011;63889;50.596;8.690;2023-07-20T00:03:39;4.55;;;2.35;;
14169;SDS011;63889;50.596;8.690;2023-07-20T00:06:05;3.97;;;2.42;;
14169;SDS011;63889;50.596;8.690;2023-07-20T00:08:30;2.80;;;2.10;;
14169;SDS011;63889;50.596;8.690;2023-07-20T00:10:56;5.10;;;2.05;;
14169;SDS011;63889;50.596;8.690;2023-07-20T00:13:22;3.95;;;2.05;;
14169;SDS011;63889;50.596;8.690;2023-07-20T00:15:47;5.45;;;1.98;;
14169;SDS011;63889;50.596;8.690;2023-07-20T00:18:13;3.92;;;2.00;;
14169;SDS011;63889;50.596;8.690;2023-07-20T00:20:39;4.53;;;2.30;;
14169;SDS011;63889;50.596;8.690;2023-07-20T00:23:05;4.28;;;2.28;;
14169;SDS011;63889;50.596;8.690;2023-07-20T00:25:31;3.60;;;2.40;;
14169;SDS011;63889;50.596;8.690;2023-07-20T00:27:56;5.13;;;2.33;;
14169;SDS011;63889;50.596;8.690;2023-07-20T00:30:22;2.80;;;2.22;;
14169;SDS011;63889;50.596;8.690;2023-07-20T00:32:48;10.65;;;2.25;;
14169;SDS011;63889;50.596;8.690;2023-07-20T00:35:13;3.53;;;2.00;;
14169;SDS011;63889;50.596;8.690;2023-07-20T00:37:39;4.18;;;2.10;;
14169;SDS011;63889;50.596;8.690;2023-07-20T00:40:05;7.88;;;2.60;;
14169;SDS011;63889;50.596;8.690;2023-07-20T00:42:32;2.67;;;2.17;;
14169;SDS011;63889;50.596;8.690;2023-07-20T00:44:58;4.35;;;2.38;;
14169;SDS011;63889;50.596;8.690;2023-07-20T00:47:24;8.55;;;2.30;;
14169;SDS011;63889;50.596;8.690;2023-07-20T00:49:50;4.85;;;2.60;;
14169;SDS011;63889;50.596;8.690;2023-07-20T00:52:16;7.30;;;3.10;;
14169;SDS011;63889;50.596;8.690;2023-07-20T00:54:45;6.88;;;2.90;;
14169;SDS011;63889;50.596;8.690;2023-07-20T00:57:11;5.53;;;2.58;;
14169;SDS011;63889;50.596;8.690;2023-07-20T00:59:42;4.38;;;2.25;;
14169;SDS011;63889;50.596;8.690;2023-07-20T01:02:08;7.20;;;2.95;;
14169;SDS011;63889;50.596;8.690;2023-07-20T01:04:34;6.13;;;2.70;;
14169;SDS011;63889;50.596;8.690;2023-07-20T01:07:14;7.65;;;2.33;;
14169;SDS011;63889;50.596;8.690;2023-07-20T01:09:46;4.18;;;2.40;;
14169;SDS011;63889;50.596;8.690;2023-07-20T01:12:32;5.18;;;2.80;;
14169;SDS011;63889;50.596;8.690;2023-07-20T01:15:05;5.07;;;3.13;;
14169;SDS011;63889;50.596;8.690;2023-07-20T01:17:33;5.15;;;2.63;;
14169;SDS011;63889;50.596;8.690;2023-07-20T01:19:59;4.78;;;2.22;;
14169;SDS011;63889;50.596;8.690;2023-07-20T01:22:40;4.05;;;2.15;;
14169;SDS011;63889;50.596;8.690;2023-07-20T01:28:04;2.97;;;2.17;;
14169;SDS011;63889;50.596;8.690;2023-07-20T01:30:46;3.40;;;2.08;;
14169;SDS011;63889;50.596;8.690;2023-07-20T01:33:34;6.97;;;2.13;;
14169;SDS011;63889;50.596;8.690;2023-07-20T01:36:00;6.88;;;2.42;;
14169;SDS011;63889;50.596;8.690;2023-07-20T01:38:27;3.85;;;2.28;;
14169;SDS011;63889;50.596;8.690;2023-07-20T01:40:53;4.60;;;2.35;;
14169;SDS011;63889;50.596;8.690;2023-07-20T01:43:20;7.35;;;2.63;;
14169;SDS011;63889;50.596;8.690;2023-07-20T01:45:46;3.40;;;2.15;;
14169;SDS011;63889;50.596;8.690;2023-07-20T01:48:12;3.95;;;2.45;;
14169;SDS011;63889;50.596;8.690;2023-07-20T01:50:38;6.35;;;2.88;;
14169;SDS011;63889;50.596;8.690;2023-07-20T01:53:03;7.03;;;2.25;;
14169;SDS011;63889;50.596;8.690;2023-07-20T01:55:29;6.85;;;2.33;;
14169;SDS011;63889;50.596;8.690;2023-07-20T01:57:54;8.43;;;2.67;;
14169;SDS011;63889;50.596;8.690;2023-07-20T02:00:20;3.67;;;1.85;;
14169;SDS011;63889;50.596;8.690;2023-07-20T02:02:49;5.20;;;2.92;;
14169;SDS011;63889;50.596;8.690;2023-07-20T02:05:15;8.90;;;2.75;;
14169;SDS011;63889;50.596;8.690;2023-07-20T02:07:41;3.72;;;2.38;;
14169;SDS011;63889;50.596;8.690;2023-07-20T02:10:07;4.57;;;2.40;;
14169;SDS011;63889;50.596;8.690;2023-07-20T02:12:33;5.28;;;2.20;;
14169;SDS011;63889;50.596;8.690;2023-07-20T02:14:58;4.53;;;2.10;;
14169;SDS011;63889;50.596;8.690;2023-07-20T02:17:24;4.93;;;2.35;;
14169;SDS011;63889;50.596;8.690;2023-07-20T02:19:51;8.02;;;2.88;;
14169;SDS011;63889;50.596;8.690;2023-07-20T02:22:18;6.20;;;2.60;;
14169;SDS011;63889;50.596;8.690;2023-07-20T02:24:44;7.70;;;2.17;;
14169;SDS011;63889;50.596;8.690;2023-07-20T02:27:09;5.53;;;2.30;;
14169;SDS011;63889;50.596;8.690;2023-07-20T02:29:35;5.43;;;2.30;;
14169;SDS011;63889;50.596;8.690;2023-07-20T02:32:01;5.65;;;2.38;;
14169;SDS011;63889;50.596;8.690;2023-07-20T02:34:27;4.13;;;2.20;;
14169;SDS011;63889;50.596;8.690;2023-07-20T02:36:52;7.07;;;2.30;;
14169;SDS011;63889;50.596;8.690;2023-07-20T02:39:21;5.28;;;2.30;;
14169;SDS011;63889;50.596;8.690;2023-07-20T02:41:46;4.38;;;2.50;;
14169;SDS011;63889;50.596;8.690;2023-07-20T02:44:13;3.17;;;2.30;;
14169;SDS011;63889;50.596;8.690;2023-07-20T02:46:39;4.32;;;1.95;;
14169;SDS011;63889;50.596;8.690;2023-07-20T02:49:05;3.17;;;2.20;;
14169;SDS011;63889;50.596;8.690;2023-07-20T02:51:31;5.07;;;2.20;;
14169;SDS011;63889;50.596;8.690;2023-07-20T02:53:56;10.40;;;2.50;;
14169;SDS011;63889;50.596;8.690;2023-07-20T02:56:22;4.75;;;2.42;;
14169;SDS011;63889;50.596;8.690;2023-07-20T02:58:48;8.38;;;2.42;;
14169;SDS011;63889;50.596;8.690;2023-07-20T03:01:13;6.55;;;2.47;;
14169;SDS011;63889;50.596;8.690;2023-07-20T03:03:40;5.50;;;2.55;;
14169;SDS011;63889;50.596;8.690;2023-07-20T03:06:10;6.37;;;2.47;;
14169;SDS011;63889;50.596;8.690;2023-07-20T03:08:36;5.25;;;2.38;;
14169;SDS011;63889;50.596;8.690;2023-07-20T03:11:02;2.85;;;2.22;;
14169;SDS011;63889;50.596;8.690;2023-07-20T03:13:27;6.50;;;2.75;;
14169;SDS011;63889;50.596;8.690;2023-07-20T03:15:53;5.45;;;2.25;;
14169;SDS011;63889;50.596;8.690;2023-07-20T03:18:19;3.72;;;1.88;;
14169;SDS011;63889;50.596;8.690;2023-07-20T03:20:44;5.63;;;2.80;;
14169;SDS011;63889;50.596;8.690;2023-07-20T03:23:11;3.85;;;2.17;;
14169;SDS011;63889;50.596;8.690;2023-07-20T03:25:37;7.28;;;3.10;;
14169;SDS011;63889;50.596;8.690;2023-07-20T03:28:03;3.20;;;2.20;;
14169;SDS011;63889;50.596;8.690;2023-07-20T03:30:29;7.25;;;2.55;;
14169;SDS011;63889;50.596;8.690;2023-07-20T03:32:54;7.82;;;2.58;;
14169;SDS011;63889;50.596;8.690;2023-07-20T03:35:20;3.58;;;2.10;;
14169;SDS011;63889;50.596;8.690;2023-07-20T03:37:45;5.05;;;2.35;;
14169;SDS011;63889;50.596;8.690;2023-07-20T03:40:11;5.22;;;2.22;;
14169;SDS011;63889;50.596;8.690;2023-07-20T03:42:36;4.53;;;2.15;;
14169;SDS011;63889;50.596;8.690;2023-07-20T03:45:03;5.65;;;2.55;;
14169;SDS011;63889;50.596;8.690;2023-07-20T03:47:29;5.43;;;2.75;;
14169;SDS011;63889;50.596;8.690;2023-07-20T03:49:55;6.03;;;2.60;;
14169;SDS011;63889;50.596;8.690;2023-07-20T03:52:21;9.93;;;2.17;;
14169;SDS011;63889;50.596;8.690;2023-07-20T03:54:46;7.88;;;2.58;;
14169;SDS011;63889;50.596;8.690;2023-07-20T03:57:12;5.95;;;2.38;;
14169;SDS011;63889;50.596;8.690;2023-07-20T03:59:38;4.20;;;2.20;;
14169;SDS011;63889;50.596;8.690;2023-07-20T04:02:04;5.97;;;2.47;;
14169;SDS011;63889;50.596;8.690;2023-07-20T04:04:30;5.65;;;2.33;;
14169;SDS011;63889;50.596;8.690;2023-07-20T04:06:56;4.78;;;2.40;;
14169;SDS011;63889;50.596;8.690;2023-07-20T04:09:22;10.48;;;2.35;;
14169;SDS011;63889;50.596;8.690;2023-07-20T04:11:47;7.78;;;2.38;;
14169;SDS011;63889;50.596;8.690;2023-07-20T04:14:13;6.45;;;2.50;;
14169;SDS011;63889;50.596;8.690;2023-07-20T04:16:38;4.75;;;2.35;;
14169;SDS011;63889;50.596;8.690;2023-07-20T04:19:04;9.52;;;2.60;;
14169;SDS011;63889;50.596;8.690;2023-07-20T04:21:29;7.10;;;2.63;;
14169;SDS011;63889;50.596;8.690;2023-07-20T04:23:55;5.85;;;2.50;;
14169;SDS011;63889;50.596;8.690;2023-07-20T04:26:20;7.43;;;2.20;;
14169;SDS011;63889;50.596;8.690;2023-07-20T04:28:46;7.00;;;2.70;;
14169;SDS011;63889;50.596;8.690;2023-07-20T04:31:13;6.97;;;2.58;;
14169;SDS011;63889;50.596;8.690;2023-07-20T04:33:40;7.50;;;3.20;;
14169;SDS011;63889;50.596;8.690;2023-07-20T04:36:06;5.18;;;2.42;;
14169;SDS011;63889;50.596;8.690;2023-07-20T04:38:32;5.95;;;2.90;;
14169;SDS011;63889;50.596;8.690;2023-07-20T04:40:58;8.73;;;2.75;;
14169;SDS011;63889;50.596;8.690;2023-07-20T04:43:24;5.10;;;2.65;;
14169;SDS011;63889;50.596;8.690;2023-07-20T04:45:50;6.28;;;3.25;;
14169;SDS011;63889;50.596;8.690;2023-07-20T04:48:16;5.07;;;2.53;;
14169;SDS011;63889;50.596;8.690;2023-07-20T04:50:42;5.32;;;2.63;;
14169;SDS011;63889;50.596;8.690;2023-07-20T04:53:10;4.38;;;2.25;;
14169;SDS011;63889;50.596;8.690;2023-07-20T04:55:37;4.85;;;2.50;;
14169;SDS011;63889;50.596;8.690;2023-07-20T04:58:03;7.30;;;2.97;;
14169;SDS011;63889;50.596;8.690;2023-07-20T05:00:30;7.97;;;2.83;;
14169;SDS011;63889;50.596;8.690;2023-07-20T05:02:56;6.25;;;2.63;;
14169;SDS011;63889;50.596;8.690;2023-07-20T05:05:22;24.63;;;9.10;;
14169;SDS011;63889;50.596;8.690;2023-07-20T05:07:47;16.48;;;6.63;;
14169;SDS011;63889;50.596;8.690;2023-07-20T05:10:13;9.45;;;5.25;;
14169;SDS011;63889;50.596;8.690;2023-07-20T05:12:38;9.50;;;4.78;;
14169;SDS011;63889;50.596;8.690;2023-07-20T05:15:04;6.93;;;4.22;;
14169;SDS011;63889;50.596;8.690;2023-07-20T05:17:30;7.50;;;4.05;;
14169;SDS011;63889;50.596;8.690;2023-07-20T05:19:55;6.63;;;3.13;;
14169;SDS011;63889;50.596;8.690;2023-07-20T05:22:21;9.75;;;3.40;;
14169;SDS011;63889;50.596;8.690;2023-07-20T05:24:47;6.30;;;3.97;;
14169;SDS011;63889;50.596;8.690;2023-07-20T05:27:12;6.10;;;3.33;;
14169;SDS011;63889;50.596;8.690;2023-07-20T05:29:40;4.85;;;3.35;;
14169;SDS011;63889;50.596;8.690;2023-07-20T05:34:35;7.72;;;3.08;;
14169;SDS011;63889;50.596;8.690;2023-07-20T05:37:00;7.25;;;3.38;;
14169;SDS011;63889;50.596;8.690;2023-07-20T05:39:26;7.45;;;3.30;;
14169;SDS011;63889;50.596;8.690;2023-07-20T05:41:51;12.05;;;3.20;;
14169;SDS011;63889;50.596;8.690;2023-07-20T05:44:17;6.40;;;3.28;;
14169;SDS011;63889;50.596;8.690;2023-07-20T05:46:42;10.13;;;3.72;;
14169;SDS011;63889;50.596;8.690;2023-07-20T05:49:08;25.88;;;4.85;;
14169;SDS011;63889;50.596;8.690;2023-07-20T05:51:33;9.52;;;3.70;;
14169;SDS011;63889;50.596;8.690;2023-07-20T05:53:59;5.75;;;3.45;;
14169;SDS011;63889;50.596;8.690;2023-07-20T05:56:24;10.15;;;4.47;;
14169;SDS011;63889;50.596;8.690;2023-07-20T05:58:50;7.95;;;3.55;;
14169;SDS011;63889;50.596;8.690;2023-07-20T06:01:15;5.72;;;4.30;;
14169;SDS011;63889;50.596;8.690;2023-07-20T06:03:43;8.02;;;3.67;;
14169;SDS011;63889;50.596;8.690;2023-07-20T06:06:09;8.18;;;3.40;;
14169;SDS011;63889;50.596;8.690;2023-07-20T06:08:36;9.45;;;3.90;;
14169;SDS011;63889;50.596;8.690;2023-07-20T06:11:02;7.43;;;3.90;;
14169;SDS011;63889;50.596;8.690;2023-07-20T06:13:28;9.57;;;4.03;;
14169;SDS011;63889;50.596;8.690;2023-07-20T06:15:53;6.90;;;3.72;;
14169;SDS011;63889;50.596;8.690;2023-07-20T06:18:20;6.20;;;3.65;;
14169;SDS011;63889;50.596;8.690;2023-07-20T06:20:51;9.98;;;3.60;;
14169;SDS011;63889;50.596;8.690;2023-07-20T06:23:20;7.22;;;3.50;;
14169;SDS011;63889;50.596;8.690;2023-07-20T06:25:45;6.03;;;3.20;;
14169;SDS011;63889;50.596;8.690;2023-07-20T06:28:11;11.07;;;3.85;;
14169;SDS011;63889;50.596;8.690;2023-07-20T06:30:37;7.13;;;3.95;;
14169;SDS011;63889;50.596;8.690;2023-07-20T06:33:03;6.35;;;3.22;;
14169;SDS011;63889;50.596;8.690;2023-07-20T06:35:28;5.57;;;3.08;;
14169;SDS011;63889;50.596;8.690;2023-07-20T06:37:54;12.50;;;3.80;;
14169;SDS011;63889;50.596;8.690;2023-07-20T06:40:20;8.05;;;3.80;;
14169;SDS011;63889;50.596;8.690;2023-07-20T06:42:46;8.63;;;4.40;;
14169;SDS011;63889;50.596;8.690;2023-07-20T06:45:11;12.13;;;4.30;;
14169;SDS011;63889;50.596;8.690;2023-07-20T06:47:38;6.10;;;4.22;;
14169;SDS011;63889;50.596;8.690;2023-07-20T06:50:05;9.30;;;4.10;;
14169;SDS011;63889;50.596;8.690;2023-07-20T06:52:31;7.25;;;5.75;;
14169;SDS011;63889;50.596;8.690;2023-07-20T06:54:57;10.10;;;5.22;;
14169;SDS011;63889;50.596;8.690;2023-07-20T06:57:23;13.63;;;5.47;;
14169;SDS011;63889;50.596;8.690;2023-07-20T06:59:48;11.18;;;5.47;;
14169;SDS011;63889;50.596;8.690;2023-07-20T07:02:14;8.80;;;5.95;;
14169;SDS011;63889;50.596;8.690;2023-07-20T07:04:39;10.73;;;5.13;;
14169;SDS011;63889;50.596;8.690;2023-07-20T07:07:06;14.23;;;5.47;;
14169;SDS011;63889;50.596;8.690;2023-07-20T07:09:31;14.38;;;6.20;;
14169;SDS011;63889;50.596;8.690;2023-07-20T07:11:57;9.13;;;5.47;;
14169;SDS011;63889;50.596;8.690;2023-07-20T07:14:23;9.63;;;5.63;;
14169;SDS011;63889;50.596;8.690;2023-07-20T07:16:48;9.13;;;5.18;;
14169;SDS011;63889;50.596;8.690;2023-07-20T07:19:14;9.13;;;5.47;;
14169;SDS011;63889;50.596;8.690;2023-07-20T07:21:39;8.38;;;5.60;;
14169;SDS011;63889;50.596;8.690;2023-07-20T07:24:05;7.90;;;5.82;;
14169;SDS011;63889;50.596;8.690;2023-07-20T07:26:32;9.10;;;5.40;;
14169;SDS011;63889;50.596;8.690;2023-07-20T07:28:58;10.57;;;5.65;;
14169;SDS011;63889;50.596;8.690;2023-07-20T07:31:24;18.83;;;7.28;;
14169;SDS011;63889;50.596;8.690;2023-07-20T07:33:50;13.60;;;6.32;;
14169;SDS011;63889;50.596;8.690;2023-07-20T07:36:16;9.98;;;6.05;;
14169;SDS011;63889;50.596;8.690;2023-07-20T07:38:41;7.50;;;5.60;;
14169;SDS011;63889;50.596;8.690;2023-07-20T07:41:07;7.72;;;5.55;;
14169;SDS011;63889;50.596;8.690;2023-07-20T07:43:33;10.52;;;5.72;;
14169;SDS011;63889;50.596;8.690;2023-07-20T07:46:00;13.10;;;6.60;;
14169;SDS011;63889;50.596;8.690;2023-07-20T07:48:26;13.40;;;6.38;;
14169;SDS011;63889;50.596;8.690;2023-07-20T07:50:53;10.52;;;5.93;;
14169;SDS011;63889;50.596;8.690;2023-07-20T07:53:19;10.05;;;5.35;;
14169;SDS011;63889;50.596;8.690;2023-07-20T07:55:45;11.05;;;5.30;;
14169;SDS011;63889;50.596;8.690;2023-07-20T07:58:12;7.28;;;5.22;;
14169;SDS011;63889;50.596;8.690;2023-07-20T08:00:38;9.75;;;5.53;;
14169;SDS011;63889;50.596;8.690;2023-07-20T08:03:05;10.63;;;5.45;;
14169;SDS011;63889;50.596;8.690;2023-07-20T08:05:31;9.05;;;5.50;;
14169;SDS011;63889;50.596;8.690;2023-07-20T08:07:58;8.45;;;4.97;;
14169;SDS011;63889;50.596;8.690;2023-07-20T08:10:23;8.00;;;4.75;;
14169;SDS011;63889;50.596;8.690;2023-07-20T08:12:49;8.40;;;5.20;;
14169;SDS011;63889;50.596;8.690;2023-07-20T08:15:15;6.82;;;4.72;;
14169;SDS011;63889;50.596;8.690;2023-07-20T08:17:41;11.18;;;5.10;;
14169;SDS011;63889;50.596;8.690;2023-07-20T08:20:09;10.75;;;5.22;;
14169;SDS011;63889;50.596;8.690;2023-07-20T08:22:37;10.13;;;5.15;;
14169;SDS011;63889;50.596;8.690;2023-07-20T08:25:04;8.40;;;4.60;;
14169;SDS011;63889;50.596;8.690;2023-07-20T08:27:30;12.38;;;4.32;;
14169;SDS011;63889;50.596;8.690;2023-07-20T08:29:56;6.82;;;5.43;;
14169;SDS011;63889;50.596;8.690;2023-07-20T08:32:21;10.95;;;5.35;;
14169;SDS011;63889;50.596;8.690;2023-07-20T08:34:47;8.13;;;5.32;;
14169;SDS011;63889;50.596;8.690;2023-07-20T08:37:12;9.60;;;5.15;;
14169;SDS011;63889;50.596;8.690;2023-07-20T08:39:38;7.20;;;4.10;;
14169;SDS011;63889;50.596;8.690;2023-07-20T08:42:04;7.82;;;4.43;;
14169;SDS011;63889;50.596;8.690;2023-07-20T08:44:34;10.90;;;4.60;;
14169;SDS011;63889;50.596;8.690;2023-07-20T08:47:01;7.68;;;4.65;;
14169;SDS011;63889;50.596;8.690;2023-07-20T08:49:29;7.72;;;4.57;;
14169;SDS011;63889;50.596;8.690;2023-07-20T08:51:56;7.50;;;4.90;;
14169;SDS011;63889;50.596;8.690;2023-07-20T08:54:23;8.10;;;5.43;;
14169;SDS011;63889;50.596;8.690;2023-07-20T08:56:51;8.35;;;5.07;;
14169;SDS011;63889;50.596;8.690;2023-07-20T08:59:18;8.82;;;4.75;;
14169;SDS011;63889;50.596;8.690;2023-07-20T09:01:44;9.30;;;4.97;;
14169;SDS011;63889;50.596;8.690;2023-07-20T09:04:11;5.65;;;4.50;;
14169;SDS011;63889;50.596;8.690;2023-07-20T09:06:37;7.93;;;4.38;;
14169;SDS011;63889;50.596;8.690;2023-07-20T09:09:03;6.97;;;4.55;;
14169;SDS011;63889;50.596;8.690;2023-07-20T09:11:28;7.18;;;4.68;;
14169;SDS011;63889;50.596;8.690;2023-07-20T09:14:06;8.98;;;4.78;;
14169;SDS011;63889;50.596;8.690;2023-07-20T09:16:55;7.95;;;4.72;;
14169;SDS011;63889;50.596;8.690;2023-07-20T09:19:20;5.60;;;4.53;;
14169;SDS011;63889;50.596;8.690;2023-07-20T09:21:50;4.88;;;3.78;;
14169;SDS011;63889;50.596;8.690;2023-07-20T09:24:20;5.87;;;4.20;;
14169;SDS011;63889;50.596;8.690;2023-07-20T09:26:46;6.72;;;4.07;;
14169;SDS011;63889;50.596;8.690;2023-07-20T09:29:13;6.22;;;3.72;;
14169;SDS011;63889;50.596;8.690;2023-07-20T09:31:39;5.82;;;3.67;;
14169;SDS011;63889;50.596;8.690;2023-07-20T09:34:05;8.68;;;4.82;;
14169;SDS011;63889;50.596;8.690;2023-07-20T09:36:35;8.48;;;4.60;;
14169;SDS011;63889;50.596;8.690;2023-07-20T09:39:02;7.25;;;4.25;;
14169;SDS011;63889;50.596;8.690;2023-07-20T09:41:29;6.38;;;3.53;;
14169;SDS011;63889;50.596;8.690;2023-07-20T09:43:55;5.43;;;4.00;;
14169;SDS011;63889;50.596;8.690;2023-07-20T09:46:20;7.53;;;3.42;;
14169;SDS011;63889;50.596;8.690;2023-07-20T09:48:53;4.82;;;3.42;;
14169;SDS011;63889;50.596;8.690;2023-07-20T09:51:20;6.03;;;3.70;;
14169;SDS011;63889;50.596;8.690;2023-07-20T09:53:48;7.05;;;3.63;;
14169;SDS011;63889;50.596;8.690;2023-07-20T09:56:14;3.47;;;2.97;;
14169;SDS011;63889;50.596;8.690;2023-07-20T09:58:42;4.60;;;2.95;;
14169;SDS011;63889;50.596;8.690;2023-07-20T10:01:10;4.50;;;3.35;;
14169;SDS011;63889;50.596;8.690;2023-07-20T10:03:39;5.93;;;3.00;;
14169;SDS011;63889;50.596;8.690;2023-07-20T10:06:08;4.45;;;3.22;;
14169;SDS011;63889;50.596;8.690;2023-07-20T10:08:41;4.95;;;2.50;;
14169;SDS011;63889;50.596;8.690;2023-07-20T10:11:11;3.47;;;3.00;;
14169;SDS011;63889;50.596;8.690;2023-07-20T10:13:40;4.38;;;3.03;;
14169;SDS011;63889;50.596;8.690;2023-07-20T10:16:12;4.07;;;3.35;;
14169;SDS011;63889;50.596;8.690;2023-07-20T10:21:21;5.05;;;2.85;;
14169;SDS011;63889;50.596;8.690;2023-07-20T10:23:50;4.97;;;2.80;;
14169;SDS011;63889;50.596;8.690;2023-07-20T10:26:16;3.53;;;2.50;;
14169;SDS011;63889;50.596;8.690;2023-07-20T10:28:41;3.65;;;2.50;;
14169;SDS011;63889;50.596;8.690;2023-07-20T10:31:08;2.72;;;2.53;;
14169;SDS011;63889;50.596;8.690;2023-07-20T10:33:36;5.45;;;2.60;;
14169;SDS011;63889;50.596;8.690;2023-07-20T10:36:03;6.35;;;3.20;;
14169;SDS011;63889;50.596;8.690;2023-07-20T10:41:18;4.35;;;2.38;;
14169;SDS011;63889;50.596;8.690;2023-07-20T10:43:45;3.03;;;2.33;;
14169;SDS011;63889;50.596;8.690;2023-07-20T10:46:11;6.13;;;2.38;;
14169;SDS011;63889;50.596;8.690;2023-07-20T10:48:58;3.75;;;2.47;;
14169;SDS011;63889;50.596;8.690;2023-07-20T10:51:27;4.28;;;2.33;;
14169;SDS011;63889;50.596;8.690;2023-07-20T10:53:54;5.20;;;2.15;;
14169;SDS011;63889;50.596;8.690;2023-07-20T10:56:25;2.22;;;2.00;;
14169;SDS011;63889;50.596;8.690;2023-07-20T11:01:27;3.65;;;2.10;;
14169;SDS011;63889;50.596;8.690;2023-07-20T11:03:57;6.32;;;2.47;;
14169;SDS011;63889;50.596;8.690;2023-07-20T11:08:48;2.30;;;2.10;;
14169;SDS011;63889;50.596;8.690;2023-07-20T11:11:36;6.28;;;2.83;;
14169;SDS011;63889;50.596;8.690;2023-07-20T11:14:03;4.80;;;2.47;;
14169;SDS011;63889;50.596;8.690;2023-07-20T11:18:58;6.53;;;2.28;;
14169;SDS011;63889;50.596;8.690;2023-07-20T11:21:24;5.10;;;2.55;;
14169;SDS011;63889;50.596;8.690;2023-07-20T11:23:51;5.82;;;2.50;;
14169;SDS011;63889;50.596;8.690;2023-07-20T11:26:17;2.97;;;2.65;;
14169;SDS011;63889;50.596;8.690;2023-07-20T11:28:47;3.78;;;2.50;;
14169;SDS011;63889;50.596;8.690;2023-07-20T11:31:14;4.78;;;2.60;;
14169;SDS011;63889;50.596;8.690;2023-07-20T11:33:41;3.90;;;2.83;;
14169;SDS011;63889;50.596;8.690;2023-07-20T11:36:08;4.70;;;2.70;;
14169;SDS011;63889;50.596;8.690;2023-07-20T11:38:33;5.60;;;2.80;;
14169;SDS011;63889;50.596;8.690;2023-07-20T11:40:59;2.58;;;2.15;;
14169;SDS011;63889;50.596;8.690;2023-07-20T11:43:25;2.58;;;2.38;;
14169;SDS011;63889;50.596;8.690;2023-07-20T11:45:51;3.40;;;2.78;;
14169;SDS011;63889;50.596;8.690;2023-07-20T11:48:17;3.20;;;2.90;;
14169;SDS011;63889;50.596;8.690;2023-07-20T11:50:42;8.63;;;2.50;;
14169;SDS011;63889;50.596;8.690;2023-07-20T11:53:08;4.40;;;3.10;;
14169;SDS011;63889;50.596;8.690;2023-07-20T11:55:34;4.05;;;2.53;;
14169;SDS011;63889;50.596;8.690;2023-07-20T11:58:00;7.82;;;2.92;;
14169;SDS011;63889;50.596;8.690;2023-07-20T12:00:29;3.75;;;2.20;;
14169;SDS011;63889;50.596;8.690;2023-07-20T12:02:56;4.63;;;2.42;;
14169;SDS011;63889;50.596;8.690;2023-07-20T12:05:24;3.72;;;2.28;;
14169;SDS011;63889;50.596;8.690;2023-07-20T12:07:51;3.20;;;2.03;;
14169;SDS011;63889;50.596;8.690;2023-07-20T12:10:22;2.95;;;2.17;;
14169;SDS011;63889;50.596;8.690;2023-07-20T12:12:53;3.35;;;2.55;;
14169;SDS011;63889;50.596;8.690;2023-07-20T12:15:20;4.03;;;2.95;;
14169;SDS011;63889;50.596;8.690;2023-07-20T12:17:46;5.72;;;2.92;;
14169;SDS011;63889;50.596;8.690;2023-07-20T12:20:24;5.47;;;2.80;;
14169;SDS011;63889;50.596;8.690;2023-07-20T12:23:11;7.60;;;2.72;;
14169;SDS011;63889;50.596;8.690;2023-07-20T12:25:44;4.65;;;2.78;;
14169;SDS011;63889;50.596;8.690;2023-07-20T12:28:12;5.30;;;2.70;;
14169;SDS011;63889;50.596;8.690;2023-07-20T12:30:42;8.98;;;2.60;;
14169;SDS011;63889;50.596;8.690;2023-07-20T12:33:12;4.00;;;2.60;;
14169;SDS011;63889;50.596;8.690;2023-07-20T12:35:40;4.20;;;2.80;;
14169;SDS011;63889;50.596;8.690;2023-07-20T12:38:07;4.50;;;2.75;;
14169;SDS011;63889;50.596;8.690;2023-07-20T12:40:33;4.15;;;2.55;;
14169;SDS011;63889;50.596;8.690;2023-07-20T12:43:01;6.80;;;2.55;;
14169;SDS011;63889;50.596;8.690;2023-07-20T12:45:27;5.97;;;2.50;;
14169;SDS011;63889;50.596;8.690;2023-07-20T12:47:52;2.55;;;2.22;;
14169;SDS011;63889;50.596;8.690;2023-07-20T12:50:18;2.63;;;2.42;;
14169;SDS011;63889;50.596;8.690;2023-07-20T12:52:43;5.28;;;2.70;;
14169;SDS011;63889;50.596;8.690;2023-07-20T12:55:09;6.07;;;2.60;;
14169;SDS011;63889;50.596;8.690;2023-07-20T12:57:35;6.10;;;2.35;;
14169;SDS011;63889;50.596;8.690;2023-07-20T13:00:04;3.47;;;2.88;;
14169;SDS011;63889;50.596;8.690;2023-07-20T13:02:33;7.68;;;2.88;;
14169;SDS011;63889;50.596;8.690;2023-07-20T13:04:58;5.50;;;2.22;;
14169;SDS011;63889;50.596;8.690;2023-07-20T13:07:31;4.68;;;2.40;;
14169;SDS011;63889;50.596;8.690;2023-07-20T13:10:01;6.78;;;2.72;;
14169;SDS011;63889;50.596;8.690;2023-07-20T13:12:29;4.72;;;2.25;;
14169;SDS011;63889;50.596;8.690;2023-07-20T13:14:55;6.82;;;2.50;;
14169;SDS011;63889;50.596;8.690;2023-07-20T13:17:22;6.90;;;2.78;;
14169;SDS011;63889;50.596;8.690;2023-07-20T13:19:48;6.28;;;2.35;;
14169;SDS011;63889;50.596;8.690;2023-07-20T13:22:14;4.13;;;2.47;;
14169;SDS011;63889;50.596;8.690;2023-07-20T13:24:40;4.80;;;3.35;;
14169;SDS011;63889;50.596;8.690;2023-07-20T13:27:06;5.43;;;2.50;;
14169;SDS011;63889;50.596;8.690;2023-07-20T13:29:31;4.80;;;2.10;;
14169;SDS011;63889;50.596;8.690;2023-07-20T13:31:57;6.22;;;2.33;;
14169;SDS011;63889;50.596;8.690;2023-07-20T13:34:24;3.22;;;2.08;;
14169;SDS011;63889;50.596;8.690;2023-07-20T13:36:50;5.63;;;2.25;;
14169;SDS011;63889;50.596;8.690;2023-07-20T13:39:16;6.15;;;2.35;;
14169;SDS011;63889;50.596;8.690;2023-07-20T13:41:41;4.55;;;2.33;;
14169;SDS011;63889;50.596;8.690;2023-07-20T13:44:07;4.65;;;2.30;;
14169;SDS011;63889;50.596;8.690;2023-07-20T13:46:33;4.28;;;2.47;;
14169;SDS011;63889;50.596;8.690;2023-07-20T13:48:59;6.07;;;2.40;;
14169;SDS011;63889;50.596;8.690;2023-07-20T13:51:24;6.63;;;2.78;;
14169;SDS011;63889;50.596;8.690;2023-07-20T13:53:51;3.58;;;2.50;;
14169;SDS011;63889;50.596;8.690;2023-07-20T13:56:16;3.78;;;2.05;;
14169;SDS011;63889;50.596;8.690;2023-07-20T13:58:42;3.72;;;2.13;;
14169;SDS011;63889;50.596;8.690;2023-07-20T14:01:07;3.78;;;2.10;;
14169;SDS011;63889;50.596;8.690;2023-07-20T14:03:34;2.42;;;2.10;;
14169;SDS011;63889;50.596;8.690;2023-07-20T14:06:00;4.72;;;2.97;;
14169;SDS011;63889;50.596;8.690;2023-07-20T14:08:25;4.53;;;2.83;;
14169;SDS011;63889;50.596;8.690;2023-07-20T14:10:51;4.82;;;2.47;;
14169;SDS011;63889;50.596;8.690;2023-07-20T14:13:16;2.30;;;2.10;;
14169;SDS011;63889;50.596;8.690;2023-07-20T14:15:42;6.05;;;4.30;;
14169;SDS011;63889;50.596;8.690;2023-07-20T14:18:07;4.25;;;2.72;;
14169;SDS011;63889;50.596;8.690;2023-07-20T14:20:33;6.93;;;2.58;;
14169;SDS011;63889;50.596;8.690;2023-07-20T14:22:58;4.10;;;2.90;;
14169;SDS011;63889;50.596;8.690;2023-07-20T14:25:24;3.53;;;2.40;;
14169;SDS011;63889;50.596;8.690;2023-07-20T14:27:50;4.40;;;2.40;;
14169;SDS011;63889;50.596;8.690;2023-07-20T14:30:15;6.45;;;2.80;;
14169;SDS011;63889;50.596;8.690;2023-07-20T14:32:41;2.92;;;2.22;;
14169;SDS011;63889;50.596;8.690;2023-07-20T14:35:06;4.28;;;2.08;;
14169;SDS011;63889;50.596;8.690;2023-07-20T14:37:33;4.50;;;2.08;;
14169;SDS011;63889;50.596;8.690;2023-07-20T14:39:59;2.53;;;1.70;;
14169;SDS011;63889;50.596;8.690;2023-07-20T14:42:24;4.47;;;2.53;;
14169;SDS011;63889;50.596;8.690;2023-07-20T14:44:50;2.38;;;1.98;;
14169;SDS011;63889;50.596;8.690;2023-07-20T14:47:16;1.83;;;1.67;;
14169;SDS011;63889;50.596;8.690;2023-07-20T14:49:41;2.65;;;1.60;;
14169;SDS011;63889;50.596;8.690;2023-07-20T14:52:07;3.03;;;1.98;;
14169;SDS011;63889;50.596;8.690;2023-07-20T14:54:33;4.05;;;1.90;;
14169;SDS011;63889;50.596;8.690;2023-07-20T14:56:58;2.58;;;2.20;;
14169;SDS011;63889;50.596;8.690;2023-07-20T14:59:24;2.35;;;1.90;;
14169;SDS011;63889;50.596;8.690;2023-07-20T15:01:49;3.28;;;2.13;;